createdAt,value
2024-02-03T00:00:12.131Z,62.19
2024-02-03T00:00:34.484Z,62.71
2024-02-03T00:00:56.394Z,62.64
2024-02-03T00:01:18.251Z,62.62
2024-02-03T00:01:42.642Z,62.70
2024-02-03T00:02:04.804Z,62.48
2024-02-03T00:02:26.562Z,62.53
2024-02-03T00:02:48.266Z,62.34
2024-02-03T00:03:09.964Z,62.04
2024-02-03T00:03:32.759Z,62.22
2024-02-03T00:03:54.768Z,62.40
2024-02-03T00:04:16.649Z,62.31
2024-02-03T00:04:38.431Z,62.15
2024-02-03T00:05:00.225Z,62.21
2024-02-03T00:05:22.876Z,62.06
2024-02-03T00:05:45.634Z,61.98
2024-02-03T00:06:07.843Z,61.89
2024-02-03T00:06:29.730Z,61.88
2024-02-03T00:06:51.554Z,61.72
2024-02-03T00:07:13.374Z,61.98
2024-02-03T00:07:37.503Z,62.08
2024-02-03T00:07:59.232Z,62.27
2024-02-03T00:08:20.988Z,61.97
2024-02-03T00:08:42.652Z,61.96
2024-02-03T00:09:06.524Z,61.85
2024-02-03T00:09:28.327Z,61.72
2024-02-03T00:09:51.101Z,61.37
2024-02-03T00:10:13.046Z,61.27
2024-02-03T00:10:38.652Z,61.40
2024-02-03T00:11:00.626Z,61.23
2024-02-03T00:11:24.569Z,61.40
2024-02-03T00:11:48.794Z,61.39
2024-02-03T00:12:11.751Z,61.81
2024-02-03T00:12:33.708Z,61.86
2024-02-03T00:12:55.878Z,61.86
2024-02-03T00:13:18.834Z,61.74
2024-02-03T00:13:40.789Z,61.59
2024-02-03T00:14:02.662Z,61.63
2024-02-03T00:14:24.608Z,61.66
2024-02-03T00:14:46.522Z,61.61
2024-02-03T00:15:10.112Z,62.10
2024-02-03T00:15:32.462Z,62.48
2024-02-03T00:15:54.736Z,62.57
2024-02-03T00:16:17.500Z,63.01
2024-02-03T00:16:39.503Z,63.15
2024-02-03T00:17:01.454Z,64.05
2024-02-03T00:17:24.702Z,64.27
2024-02-03T00:17:46.666Z,64.51
2024-02-03T00:18:08.912Z,64.47
2024-02-03T00:18:31.494Z,64.70
2024-02-03T00:18:53.572Z,64.50
2024-02-03T00:19:16.468Z,64.03
2024-02-03T00:19:38.367Z,63.81
2024-02-03T00:20:00.251Z,64.16
2024-02-03T00:20:21.981Z,64.14
2024-02-03T00:20:44.045Z,63.97
2024-02-03T00:21:07.531Z,63.77
2024-02-03T00:21:29.484Z,63.74
2024-02-03T00:21:51.379Z,63.48
2024-02-03T00:22:13.253Z,63.17
2024-02-03T00:22:36.382Z,62.95
2024-02-03T00:22:59.205Z,63.10
2024-02-03T00:23:21.498Z,63.68
2024-02-03T00:23:44.956Z,63.79
2024-02-03T00:24:06.844Z,63.85
2024-02-03T00:24:28.671Z,63.62
2024-02-03T00:24:50.461Z,63.58
2024-02-03T00:25:13.523Z,63.33
2024-02-03T00:25:35.209Z,62.94
2024-02-03T00:25:57.210Z,62.85
2024-02-03T00:26:19.008Z,62.67
2024-02-03T00:26:40.730Z,62.68
2024-02-03T00:27:06.004Z,62.66
2024-02-03T00:27:27.837Z,62.49
2024-02-03T00:27:49.740Z,62.81
2024-02-03T00:28:11.695Z,62.85
2024-02-03T00:28:33.593Z,62.67
2024-02-03T00:28:56.343Z,62.71
2024-02-03T00:29:18.136Z,62.51
2024-02-03T00:29:39.865Z,62.25
2024-02-03T00:30:05.858Z,62.32
2024-02-03T00:30:27.604Z,62.17
2024-02-03T00:30:50.472Z,62.20
2024-02-03T00:31:12.242Z,62.32
2024-02-03T00:31:34.031Z,62.31
2024-02-03T00:31:55.714Z,62.42
2024-02-03T00:32:17.401Z,62.42
2024-02-03T00:32:39.159Z,62.80
2024-02-03T00:33:01.948Z,63.19
2024-02-03T00:33:23.850Z,62.95
2024-02-03T00:33:45.758Z,63.04
2024-02-03T00:34:07.737Z,62.82
2024-02-03T00:34:29.732Z,62.74
2024-02-03T00:34:52.605Z,62.39
2024-02-03T00:35:14.574Z,62.49
2024-02-03T00:35:36.312Z,62.44
2024-02-03T00:35:58.107Z,62.59
2024-02-03T00:36:23.060Z,62.57
2024-02-03T00:36:45.883Z,62.97
2024-02-03T00:37:07.589Z,62.92
2024-02-03T00:37:29.318Z,62.80
2024-02-03T00:37:52.357Z,62.51
2024-02-03T00:38:14.093Z,63.00
2024-02-03T00:38:36.750Z,63.24
2024-02-03T00:39:01.039Z,63.31
2024-02-03T00:39:23.659Z,63.65
2024-02-03T00:39:45.519Z,63.76
2024-02-03T00:40:08.895Z,63.71
2024-02-03T00:40:30.588Z,63.56
2024-02-03T00:40:55.009Z,63.42
2024-02-03T00:41:17.063Z,63.74
2024-02-03T00:41:38.804Z,63.71
2024-02-03T00:42:00.542Z,63.44
2024-02-03T00:42:22.249Z,63.29
2024-02-03T00:42:45.084Z,63.09
2024-02-03T00:43:06.773Z,62.82
2024-02-03T00:43:28.502Z,62.86
2024-02-03T00:43:50.166Z,63.40
2024-02-03T00:44:12.125Z,63.28
2024-02-03T00:44:34.868Z,63.10
2024-02-03T00:44:56.568Z,63.24
2024-02-03T00:45:18.371Z,63.36
2024-02-03T00:45:40.141Z,63.28
2024-02-03T00:46:01.868Z,63.31
2024-02-03T00:46:23.556Z,63.38
2024-02-03T00:46:46.289Z,63.35
2024-02-03T00:47:08.217Z,63.26
2024-02-03T00:47:30.072Z,63.14
2024-02-03T00:47:51.982Z,62.96
2024-02-03T00:48:14.223Z,63.00
2024-02-03T00:48:37.383Z,63.36
2024-02-03T00:48:59.286Z,63.44
2024-02-03T00:49:21.161Z,63.63
2024-02-03T00:49:45.570Z,63.59
2024-02-03T00:50:15.344Z,63.77
2024-02-03T00:50:38.040Z,63.46
2024-02-03T00:50:59.771Z,63.56
2024-02-03T00:51:21.526Z,63.53
2024-02-03T00:51:43.308Z,63.37
2024-02-03T00:52:05.573Z,63.09
2024-02-03T00:52:28.724Z,62.93
2024-02-03T00:52:51.764Z,62.88
2024-02-03T00:53:13.637Z,62.74
2024-02-03T00:53:36.936Z,62.91
2024-02-03T00:53:58.830Z,62.89
2024-02-03T00:54:21.557Z,62.70
2024-02-03T00:54:43.392Z,62.60
2024-02-03T00:55:05.606Z,62.36
2024-02-03T00:55:27.307Z,62.45
2024-02-03T00:55:49.033Z,62.23
2024-02-03T00:56:11.902Z,62.48
2024-02-03T00:56:35.392Z,62.56
2024-02-03T00:56:57.896Z,62.00
2024-02-03T00:57:19.747Z,61.93
2024-02-03T00:57:41.516Z,61.78
2024-02-03T00:58:03.270Z,61.67
2024-02-03T00:58:26.002Z,61.54
2024-02-03T00:58:47.713Z,61.59
2024-02-03T00:59:09.456Z,61.55
2024-02-03T00:59:31.193Z,61.33
2024-02-03T00:59:53.155Z,61.15
2024-02-03T01:00:16.232Z,61.24
2024-02-03T01:00:39.073Z,61.46
2024-02-03T01:01:01.079Z,61.92
2024-02-03T01:01:22.957Z,61.85
2024-02-03T01:01:44.877Z,61.69
2024-02-03T01:02:07.432Z,61.93
2024-02-03T01:02:30.206Z,62.84
2024-02-03T01:02:51.961Z,63.80
2024-02-03T01:03:13.693Z,63.63
2024-02-03T01:03:35.552Z,63.83
2024-02-03T01:03:58.282Z,64.68
2024-02-03T01:04:20.272Z,65.32
2024-02-03T01:04:43.405Z,65.27
2024-02-03T01:05:05.848Z,65.04
2024-02-03T01:05:27.597Z,64.84
2024-02-03T01:05:49.355Z,64.83
2024-02-03T01:06:11.497Z,65.39
2024-02-03T01:06:33.372Z,65.21
2024-02-03T01:06:57.194Z,64.95
2024-02-03T01:07:19.942Z,64.68
2024-02-03T01:07:41.642Z,64.52
2024-02-03T01:08:05.532Z,64.31
2024-02-03T01:08:27.261Z,64.03
2024-02-03T01:08:48.990Z,63.75
2024-02-03T01:09:11.758Z,63.95
2024-02-03T01:09:33.650Z,64.08
2024-02-03T01:09:56.018Z,64.02
2024-02-03T01:10:18.115Z,64.00
2024-02-03T01:10:41.017Z,63.90
2024-02-03T01:11:06.137Z,63.72
2024-02-03T01:11:28.642Z,63.27
2024-02-03T01:11:50.574Z,63.36
2024-02-03T01:12:13.623Z,63.22
2024-02-03T01:12:35.603Z,63.26
2024-02-03T01:12:57.679Z,63.25
2024-02-03T01:13:19.731Z,63.03
2024-02-03T01:13:41.770Z,62.76
2024-02-03T01:14:05.003Z,62.71
2024-02-03T01:14:27.976Z,62.54
2024-02-03T01:14:49.989Z,62.57
2024-02-03T01:15:12.531Z,62.21
2024-02-03T01:15:38.609Z,62.08
2024-02-03T01:16:29.133Z,62.09
2024-02-03T01:16:51.202Z,62.29
2024-02-03T01:17:13.155Z,62.47
2024-02-03T01:17:36.174Z,62.66
2024-02-03T01:17:58.218Z,62.80
2024-02-03T01:18:20.417Z,63.22
2024-02-03T01:18:42.563Z,63.27
2024-02-03T01:19:04.701Z,63.41
2024-02-03T01:19:26.762Z,63.19
2024-02-03T01:19:49.993Z,63.03
2024-02-03T01:20:12.967Z,62.89
2024-02-03T01:20:34.838Z,62.73
2024-02-03T01:20:56.864Z,62.52
2024-02-03T01:21:19.614Z,62.17
2024-02-03T01:21:42.657Z,62.11
2024-02-03T01:22:04.591Z,63.01
2024-02-03T01:22:26.338Z,63.50
2024-02-03T01:22:48.103Z,63.62
2024-02-03T01:23:11.261Z,64.76
2024-02-03T01:23:33.020Z,65.02
2024-02-03T01:23:57.173Z,64.92
2024-02-03T01:24:19.040Z,64.66
2024-02-03T01:24:40.945Z,64.28
2024-02-03T01:25:02.709Z,64.15
2024-02-03T01:25:24.480Z,64.13
2024-02-03T01:25:47.279Z,63.99
2024-02-03T01:26:09.079Z,64.02
2024-02-03T01:26:30.800Z,63.92
2024-02-03T01:26:52.496Z,63.86
2024-02-03T01:27:14.340Z,63.90
2024-02-03T01:27:36.159Z,63.82
2024-02-03T01:27:57.916Z,64.09
2024-02-03T01:28:20.729Z,64.22
2024-02-03T01:28:45.567Z,64.20
2024-02-03T01:29:07.319Z,64.55
2024-02-03T01:29:29.841Z,64.43
2024-02-03T01:29:51.717Z,64.28
2024-02-03T01:30:14.560Z,64.28
2024-02-03T01:30:36.292Z,64.18
2024-02-03T01:30:58.758Z,64.31
2024-02-03T01:31:20.597Z,64.16
2024-02-03T01:31:42.711Z,64.08
2024-02-03T01:32:06.259Z,64.02
2024-02-03T01:32:28.217Z,64.07
2024-02-03T01:32:50.097Z,63.83
2024-02-03T01:33:11.891Z,64.06
2024-02-03T01:33:33.893Z,63.85
2024-02-03T01:33:55.839Z,63.73
2024-02-03T01:34:18.811Z,63.84
2024-02-03T01:34:40.720Z,63.46
2024-02-03T01:35:03.678Z,63.34
2024-02-03T01:35:25.489Z,63.41
2024-02-03T01:35:47.283Z,63.21
2024-02-03T01:36:09.945Z,62.99
2024-02-03T01:36:33.023Z,62.66
2024-02-03T01:36:54.825Z,63.11
2024-02-03T01:37:16.576Z,62.87
2024-02-03T01:37:38.448Z,62.57
2024-02-03T01:38:00.159Z,62.62
2024-02-03T01:38:24.126Z,62.32
2024-02-03T01:38:50.177Z,62.33
2024-02-03T01:39:13.952Z,62.49
2024-02-03T01:39:41.883Z,63.04
2024-02-03T01:40:04.473Z,62.82
2024-02-03T01:40:27.857Z,62.69
2024-02-03T01:40:49.611Z,62.87
2024-02-03T01:41:12.348Z,62.86
2024-02-03T01:41:34.290Z,62.95
2024-02-03T01:41:56.203Z,62.77
2024-02-03T01:42:18.290Z,62.86
2024-02-03T01:42:40.086Z,62.65
2024-02-03T01:43:03.124Z,62.70
2024-02-03T01:43:25.021Z,62.58
2024-02-03T01:43:47.144Z,62.57
2024-02-03T01:44:09.054Z,62.46
2024-02-03T01:44:32.357Z,62.28
2024-02-03T01:44:55.326Z,62.18
2024-02-03T01:45:17.351Z,62.03
2024-02-03T01:45:39.389Z,61.77
2024-02-03T01:46:01.184Z,61.55
2024-02-03T01:46:22.930Z,61.28
2024-02-03T01:46:45.006Z,61.57
2024-02-03T01:47:07.751Z,61.77
2024-02-03T01:47:29.491Z,61.54
2024-02-03T01:47:51.350Z,61.37
2024-02-03T01:48:14.877Z,61.44
2024-02-03T01:48:37.369Z,61.50
2024-02-03T01:49:00.604Z,61.51
2024-02-03T01:49:22.627Z,61.45
2024-02-03T01:49:44.785Z,61.21
2024-02-03T01:50:10.465Z,61.66
2024-02-03T01:50:33.559Z,61.85
2024-02-03T01:50:56.832Z,61.87
2024-02-03T01:51:20.579Z,61.76
2024-02-03T01:51:42.631Z,61.59
2024-02-03T01:52:06.188Z,61.62
2024-02-03T01:52:28.403Z,61.41
2024-02-03T01:52:52.376Z,61.54
2024-02-03T01:53:14.735Z,61.51
2024-02-03T01:53:38.594Z,61.58
2024-02-03T01:54:01.018Z,61.23
2024-02-03T01:54:22.982Z,61.24
2024-02-03T01:54:46.270Z,61.31
2024-02-03T01:55:09.611Z,61.19
2024-02-03T01:55:33.665Z,62.63
2024-02-03T01:55:58.234Z,64.62
2024-02-03T01:56:20.975Z,64.59
2024-02-03T01:56:46.105Z,64.52
2024-02-03T01:57:09.784Z,65.10
2024-02-03T01:57:32.568Z,65.80
2024-02-03T01:57:54.737Z,66.03
2024-02-03T01:58:16.738Z,65.80
2024-02-03T01:58:38.595Z,65.61
2024-02-03T01:59:01.665Z,65.31
2024-02-03T01:59:25.221Z,65.26
2024-02-03T01:59:48.084Z,65.17
2024-02-03T02:00:11.562Z,65.06
2024-02-03T02:00:33.558Z,64.69
2024-02-03T02:00:58.128Z,64.60
2024-02-03T02:01:19.944Z,64.77
2024-02-03T02:01:42.034Z,65.12
2024-02-03T02:02:04.222Z,65.67
2024-02-03T02:02:25.958Z,66.20
2024-02-03T02:02:47.755Z,66.41
2024-02-03T02:03:10.614Z,66.81
2024-02-03T02:03:32.656Z,66.73
2024-02-03T02:03:54.540Z,66.63
2024-02-03T02:04:16.736Z,66.43
2024-02-03T02:04:38.722Z,66.20
2024-02-03T02:05:01.677Z,66.17
2024-02-03T02:05:23.752Z,66.20
2024-02-03T02:05:46.074Z,66.21
2024-02-03T02:06:08.697Z,66.21
2024-02-03T02:06:31.340Z,66.30
2024-02-03T02:06:54.354Z,66.53
2024-02-03T02:07:16.173Z,66.19
2024-02-03T02:07:42.672Z,65.95
2024-02-03T02:08:05.015Z,65.67
2024-02-03T02:08:33.754Z,65.37
2024-02-03T02:08:57.865Z,65.13
2024-02-03T02:09:20.229Z,65.22
2024-02-03T02:09:42.229Z,65.36
2024-02-03T02:10:04.928Z,65.17
2024-02-03T02:10:27.006Z,65.16
2024-02-03T02:10:49.228Z,64.98
2024-02-03T02:11:13.449Z,64.64
2024-02-03T02:11:37.113Z,64.35
2024-02-03T02:11:59.236Z,64.23
2024-02-03T02:12:21.290Z,63.96
2024-02-03T02:12:43.791Z,63.96
2024-02-03T02:13:05.992Z,63.99
2024-02-03T02:13:29.300Z,64.08
2024-02-03T02:13:51.399Z,63.67
2024-02-03T02:14:13.667Z,63.57
2024-02-03T02:14:35.738Z,63.42
2024-02-03T02:14:57.692Z,63.42
2024-02-03T02:15:19.795Z,64.15
2024-02-03T02:15:43.166Z,64.65
2024-02-03T02:16:06.277Z,64.68
2024-02-03T02:16:30.230Z,64.72
2024-02-03T02:16:53.138Z,64.62
2024-02-03T02:17:16.823Z,64.52
2024-02-03T02:17:38.835Z,64.37
2024-02-03T02:18:01.356Z,64.54
2024-02-03T02:18:24.810Z,64.70
2024-02-03T02:18:46.946Z,64.80
2024-02-03T02:19:10.216Z,64.97
2024-02-03T02:19:32.413Z,65.20
2024-02-03T02:19:54.437Z,65.95
2024-02-03T02:20:18.000Z,66.83
2024-02-03T02:20:39.987Z,66.47
2024-02-03T02:21:02.247Z,66.30
2024-02-03T02:21:25.088Z,65.99
2024-02-03T02:21:46.998Z,65.57
2024-02-03T02:22:08.763Z,65.40
2024-02-03T02:22:30.582Z,65.08
2024-02-03T02:22:52.358Z,65.08
2024-02-03T02:23:15.229Z,65.07
2024-02-03T02:23:37.117Z,65.69
2024-02-03T02:23:58.937Z,65.48
2024-02-03T02:24:21.042Z,65.38
2024-02-03T02:24:43.590Z,65.08
2024-02-03T02:25:07.266Z,64.78
2024-02-03T02:25:29.058Z,65.11
2024-02-03T02:25:50.872Z,65.07
2024-02-03T02:26:12.688Z,64.86
2024-02-03T02:26:34.412Z,64.66
2024-02-03T02:26:56.193Z,64.52
2024-02-03T02:27:19.011Z,64.30
2024-02-03T02:27:40.818Z,64.02
2024-02-03T02:28:02.549Z,63.84
2024-02-03T02:28:25.073Z,63.76
2024-02-03T02:28:46.759Z,63.84
2024-02-03T02:29:08.490Z,63.63
2024-02-03T02:29:31.251Z,63.67
2024-02-03T02:29:53.069Z,63.36
2024-02-03T02:30:15.128Z,63.33
2024-02-03T02:30:36.970Z,63.13
2024-02-03T02:30:58.722Z,63.16
2024-02-03T02:31:20.399Z,63.02
2024-02-03T02:31:43.048Z,62.90
2024-02-03T02:32:05.508Z,62.65
2024-02-03T02:32:27.360Z,62.79
2024-02-03T02:32:49.369Z,62.50
2024-02-03T02:33:11.480Z,62.69
2024-02-03T02:33:34.352Z,62.67
2024-02-03T02:33:56.168Z,62.83
2024-02-03T02:34:18.009Z,62.71
2024-02-03T02:34:40.357Z,62.67
2024-02-03T02:35:02.911Z,62.69
2024-02-03T02:35:25.971Z,62.95
2024-02-03T02:35:51.029Z,63.95
2024-02-03T02:36:12.939Z,63.78
2024-02-03T02:36:34.741Z,63.67
2024-02-03T02:36:56.476Z,63.65
2024-02-03T02:37:18.539Z,63.69
2024-02-03T02:37:40.436Z,63.61
2024-02-03T02:38:02.133Z,63.29
2024-02-03T02:38:24.842Z,63.21
2024-02-03T02:38:46.560Z,63.12
2024-02-03T02:39:08.332Z,63.00
2024-02-03T02:39:30.078Z,62.94
2024-02-03T02:39:51.900Z,62.96
2024-02-03T02:40:14.970Z,63.00
2024-02-03T02:40:36.724Z,63.94
2024-02-03T02:40:58.414Z,63.89
2024-02-03T02:41:20.149Z,63.74
2024-02-03T02:41:41.825Z,63.81
2024-02-03T02:42:04.165Z,63.55
2024-02-03T02:42:26.860Z,63.46
2024-02-03T02:42:48.587Z,63.45
2024-02-03T02:43:10.407Z,63.28
2024-02-03T02:43:32.147Z,63.56
2024-02-03T02:43:53.851Z,63.41
2024-02-03T02:44:16.593Z,63.20
2024-02-03T02:44:38.265Z,63.19
2024-02-03T02:44:59.973Z,63.44
2024-02-03T02:45:21.801Z,63.90
2024-02-03T02:45:43.573Z,64.99
2024-02-03T02:46:07.383Z,65.00
2024-02-03T02:46:29.149Z,65.01
2024-02-03T02:46:50.822Z,64.88
2024-02-03T02:47:12.977Z,64.50
2024-02-03T02:47:34.775Z,64.30
2024-02-03T02:47:56.601Z,64.30
2024-02-03T02:48:19.540Z,64.26
2024-02-03T02:48:41.434Z,64.24
2024-02-03T02:49:03.466Z,63.95
2024-02-03T02:49:25.365Z,63.96
2024-02-03T02:49:47.680Z,65.28
2024-02-03T02:50:10.914Z,66.18
2024-02-03T02:50:34.790Z,66.68
2024-02-03T02:50:56.470Z,66.53
2024-02-03T02:51:18.194Z,66.37
2024-02-03T02:51:39.986Z,67.11
2024-02-03T02:52:01.767Z,67.20
2024-02-03T02:52:24.554Z,66.91
2024-02-03T02:52:46.285Z,67.19
2024-02-03T02:53:08.290Z,67.54
2024-02-03T02:53:30.008Z,67.25
2024-02-03T02:53:51.693Z,67.37
2024-02-03T02:54:14.380Z,67.17
2024-02-03T02:54:36.124Z,66.96
2024-02-03T02:54:58.054Z,66.95
2024-02-03T02:55:19.889Z,66.53
2024-02-03T02:55:41.745Z,66.71
2024-02-03T02:56:04.642Z,66.58
2024-02-03T02:56:26.411Z,66.34
2024-02-03T02:56:48.135Z,66.29
2024-02-03T02:57:10.707Z,66.40
2024-02-03T02:57:32.474Z,67.62
2024-02-03T02:57:55.341Z,67.58
2024-02-03T02:59:26.107Z,67.05
2024-02-03T03:04:38.133Z,68.92
2024-02-03T03:05:22.787Z,68.84
2024-02-03T03:05:45.825Z,68.93
2024-02-03T03:06:07.660Z,68.44
2024-02-03T03:06:30.460Z,68.19
2024-02-03T03:06:52.255Z,67.76
2024-02-03T03:07:16.273Z,67.41
2024-02-03T03:07:38.018Z,67.25
2024-02-03T03:07:59.689Z,67.26
2024-02-03T03:08:22.485Z,67.11
2024-02-03T03:08:44.200Z,66.88
2024-02-03T03:09:06.649Z,66.84
2024-02-03T03:09:28.456Z,66.59
2024-02-03T03:09:50.259Z,66.93
2024-02-03T03:10:13.581Z,67.32
2024-02-03T03:10:35.334Z,67.33
2024-02-03T03:10:57.098Z,67.28
2024-02-03T03:11:18.855Z,67.34
2024-02-03T03:11:41.602Z,67.27
2024-02-03T03:12:03.761Z,67.11
2024-02-03T03:12:25.545Z,66.97
2024-02-03T03:12:47.429Z,66.97
2024-02-03T03:13:09.225Z,66.60
2024-02-03T03:13:31.945Z,66.59
2024-02-03T03:13:53.715Z,66.74
2024-02-03T03:14:15.350Z,66.42
2024-02-03T03:14:37.145Z,66.40
2024-02-03T03:14:58.837Z,66.58
2024-02-03T03:15:21.581Z,66.31
2024-02-03T03:15:43.323Z,66.13
2024-02-03T03:16:07.641Z,65.70
2024-02-03T03:16:29.354Z,65.80
2024-02-03T03:16:51.237Z,65.99
2024-02-03T03:17:13.971Z,65.99
2024-02-03T03:17:35.757Z,65.83
2024-02-03T03:17:57.557Z,65.79
2024-02-03T03:18:19.483Z,65.57
2024-02-03T03:18:41.821Z,65.37
2024-02-03T03:19:03.762Z,65.09
2024-02-03T03:19:26.479Z,64.76
2024-02-03T03:19:48.428Z,64.80
2024-02-03T03:20:11.018Z,64.79
2024-02-03T03:20:32.695Z,64.33
2024-02-03T03:20:55.684Z,64.56
2024-02-03T03:21:18.362Z,64.32
2024-02-03T03:21:40.129Z,64.25
2024-02-03T03:22:01.787Z,64.08
2024-02-03T03:22:23.398Z,63.87
2024-02-03T03:22:46.015Z,64.08
2024-02-03T03:23:07.678Z,64.21
2024-02-03T03:23:29.407Z,64.14
2024-02-03T03:23:51.149Z,64.02
2024-02-03T03:24:12.826Z,64.00
2024-02-03T03:24:35.513Z,63.81
2024-02-03T03:24:57.179Z,64.05
2024-02-03T03:25:18.855Z,64.23
2024-02-03T03:25:40.513Z,64.28
2024-02-03T03:26:02.174Z,64.55
2024-02-03T03:26:23.771Z,64.53
2024-02-03T03:26:46.361Z,64.48
2024-02-03T03:27:08.653Z,64.27
2024-02-03T03:27:30.373Z,64.36
2024-02-03T03:27:52.186Z,64.19
2024-02-03T03:28:13.954Z,64.46
2024-02-03T03:28:35.572Z,64.35
2024-02-03T03:28:58.161Z,64.31
2024-02-03T03:29:19.812Z,64.63
2024-02-03T03:29:43.008Z,64.65
2024-02-03T03:30:05.592Z,64.39
2024-02-03T03:30:27.215Z,64.60
2024-02-03T03:36:56.166Z,66.21
2024-02-03T03:37:17.817Z,66.28
2024-02-03T03:37:39.420Z,65.71
2024-02-03T03:38:01.131Z,65.67
2024-02-03T03:38:24.417Z,65.54
2024-02-03T03:38:46.038Z,65.19
2024-02-03T03:39:09.889Z,65.13
2024-02-03T03:39:31.578Z,65.03
2024-02-03T03:39:53.789Z,64.96
2024-02-03T03:40:15.462Z,64.86
2024-02-03T03:40:37.224Z,64.85
2024-02-03T03:40:59.941Z,64.69
2024-02-03T03:41:21.549Z,64.53
2024-02-03T03:41:43.262Z,64.49
2024-02-03T03:42:05.600Z,64.44
2024-02-03T03:42:27.301Z,65.00
2024-02-03T03:42:51.120Z,65.03
2024-02-03T03:43:12.843Z,65.10
2024-02-03T03:43:34.456Z,64.60
2024-02-03T03:43:56.087Z,64.53
2024-02-03T03:44:17.728Z,64.44
2024-02-03T03:44:39.756Z,64.44
2024-02-03T03:45:02.320Z,64.43
2024-02-03T03:45:23.940Z,64.32
2024-02-03T03:45:45.747Z,64.26
2024-02-03T03:46:08.529Z,64.40
2024-02-03T03:46:30.132Z,64.80
2024-02-03T03:46:51.874Z,65.46
2024-02-03T03:47:14.679Z,65.74
2024-02-03T03:47:36.299Z,65.85
2024-02-03T03:47:57.947Z,65.63
2024-02-03T03:48:20.088Z,65.58
2024-02-03T03:48:42.125Z,65.45
2024-02-03T03:49:03.997Z,65.66
2024-02-03T03:49:28.311Z,65.50
2024-02-03T03:49:50.165Z,65.24
2024-02-03T03:50:11.881Z,65.50
2024-02-03T03:50:33.511Z,65.73
2024-02-03T03:50:55.118Z,65.72
2024-02-03T03:51:17.769Z,65.60
2024-02-03T03:51:39.805Z,65.32
2024-02-03T03:52:03.041Z,65.09
2024-02-03T03:52:24.701Z,64.97
2024-02-03T03:52:46.312Z,64.97
2024-02-03T03:53:07.964Z,64.94
2024-02-03T03:53:30.523Z,64.63
2024-02-03T03:53:52.143Z,64.38
2024-02-03T03:54:13.762Z,64.54
2024-02-03T03:54:35.461Z,64.60
2024-02-03T03:54:57.213Z,64.33
2024-02-03T03:55:19.892Z,64.30
2024-02-03T03:55:41.498Z,64.30
2024-02-03T03:56:03.732Z,64.42
2024-02-03T03:56:25.383Z,64.37
2024-02-03T03:56:46.990Z,64.46
2024-02-03T03:57:09.595Z,64.39
2024-02-03T03:57:31.968Z,64.83
2024-02-03T03:57:53.682Z,64.75
2024-02-03T03:58:15.311Z,64.76
2024-02-03T03:58:36.950Z,64.32
2024-02-03T03:59:00.363Z,64.33
2024-02-03T03:59:22.217Z,63.92
2024-02-03T03:59:43.837Z,64.08
2024-02-03T04:00:08.390Z,63.94
2024-02-03T04:00:33.748Z,64.10
2024-02-03T04:00:56.501Z,64.09
2024-02-03T04:01:18.322Z,64.08
2024-02-03T04:01:40.041Z,64.32
2024-02-03T04:02:01.756Z,64.61
2024-02-03T04:02:23.352Z,64.53
2024-02-03T04:02:44.949Z,64.40
2024-02-03T04:03:07.636Z,64.04
2024-02-03T04:03:29.340Z,64.05
2024-02-03T04:03:51.035Z,63.61
2024-02-03T04:04:12.794Z,63.62
2024-02-03T04:04:34.626Z,63.51
2024-02-03T04:04:56.274Z,63.62
2024-02-03T04:05:19.980Z,63.75
2024-02-03T04:05:41.951Z,63.74
2024-02-03T04:06:05.429Z,63.60
2024-02-03T04:06:27.183Z,63.95
2024-02-03T04:06:48.998Z,64.14
2024-02-03T04:07:12.143Z,64.15
2024-02-03T04:07:34.077Z,64.21
2024-02-03T04:07:55.823Z,64.21
2024-02-03T04:08:17.623Z,64.27
2024-02-03T04:08:40.233Z,64.59
2024-02-03T04:09:01.886Z,64.12
2024-02-03T04:09:23.559Z,64.00
2024-02-03T04:09:49.614Z,63.76
2024-02-03T04:10:11.778Z,63.43
2024-02-03T04:10:34.668Z,63.46
2024-02-03T04:10:56.369Z,63.38
2024-02-03T04:11:18.062Z,63.06
2024-02-03T04:11:40.155Z,63.03
2024-02-03T04:12:01.951Z,63.19
2024-02-03T04:12:23.862Z,63.52
2024-02-03T04:12:46.848Z,63.24
2024-02-03T04:13:08.641Z,63.04
2024-02-03T04:13:30.368Z,62.74
2024-02-03T04:13:52.060Z,62.88
2024-02-03T04:14:13.849Z,62.89
2024-02-03T04:14:35.519Z,62.64
2024-02-03T04:14:58.157Z,62.59
2024-02-03T04:15:19.806Z,63.06
2024-02-03T04:15:41.674Z,63.04
2024-02-03T04:16:04.252Z,63.59
2024-02-03T04:16:25.897Z,63.59
2024-02-03T04:16:48.489Z,63.32
2024-02-03T04:17:10.228Z,63.08
2024-02-03T04:17:31.885Z,63.02
2024-02-03T04:17:54.178Z,62.80
2024-02-03T04:18:15.917Z,62.90
2024-02-03T04:18:38.769Z,62.72
2024-02-03T04:19:01.350Z,63.03
2024-02-03T04:19:23.301Z,62.79
2024-02-03T04:19:45.291Z,63.70
2024-02-03T04:20:08.752Z,64.29
2024-02-03T04:20:30.585Z,64.44
2024-02-03T04:20:53.325Z,64.49
2024-02-03T04:21:15.016Z,64.16
2024-02-03T04:21:36.778Z,63.66
2024-02-03T04:21:58.420Z,63.72
2024-02-03T04:22:21.387Z,63.76
2024-02-03T04:22:44.019Z,63.71
2024-02-03T04:23:05.665Z,63.53
2024-02-03T04:23:48.678Z,63.31
2024-02-03T04:24:10.339Z,63.75
2024-02-03T04:24:33.046Z,64.17
2024-02-03T04:24:55.127Z,64.10
2024-02-03T04:25:16.832Z,63.91
2024-02-03T04:25:38.501Z,63.74
2024-02-03T04:26:00.756Z,63.63
2024-02-03T04:26:22.482Z,63.25
2024-02-03T04:26:45.588Z,63.00
2024-02-03T04:27:07.338Z,62.74
2024-02-03T04:27:29.084Z,62.52
2024-02-03T04:27:50.794Z,62.57
2024-02-03T04:28:12.563Z,62.62
2024-02-03T04:28:34.218Z,62.23
2024-02-03T04:28:56.798Z,62.19
2024-02-03T04:29:18.430Z,62.13
2024-02-03T04:29:40.082Z,62.03
2024-02-03T04:30:21.325Z,62.29
2024-02-03T04:30:43.498Z,62.24
2024-02-03T04:31:07.706Z,62.16
2024-02-03T04:31:29.347Z,62.45
2024-02-03T04:31:50.984Z,62.21
2024-02-03T04:32:12.709Z,61.92
2024-02-03T04:32:34.366Z,61.82
2024-02-03T04:32:57.192Z,62.02
2024-02-03T04:33:19.199Z,61.83
2024-02-03T04:33:41.048Z,61.89
2024-02-03T04:34:03.037Z,61.75
2024-02-03T04:34:25.269Z,61.63
2024-02-03T04:34:47.943Z,61.70
2024-02-03T04:35:09.786Z,61.42
2024-02-03T04:35:32.151Z,61.16
2024-02-03T04:35:53.847Z,61.25
2024-02-03T04:36:15.747Z,61.10
2024-02-03T04:36:38.454Z,61.49
2024-02-03T04:37:00.101Z,61.80
2024-02-03T04:37:23.034Z,61.63
2024-02-03T04:37:44.700Z,62.12
2024-02-03T04:38:06.329Z,62.22
2024-02-03T04:38:28.888Z,62.83
2024-02-03T04:38:50.550Z,62.67
2024-02-03T04:39:12.683Z,62.56
2024-02-03T04:39:34.372Z,62.90
2024-02-03T04:39:57.673Z,63.13
2024-02-03T04:40:19.268Z,63.28
2024-02-03T04:40:41.824Z,63.33
2024-02-03T04:41:03.560Z,63.59
2024-02-03T04:41:26.094Z,64.43
2024-02-03T04:41:47.720Z,66.16
2024-02-03T04:42:10.293Z,67.45
2024-02-03T04:42:32.765Z,67.44
2024-02-03T04:42:55.431Z,67.35
2024-02-03T04:43:17.047Z,67.09
2024-02-03T04:43:38.751Z,66.80
2024-02-03T04:44:00.499Z,66.42
2024-02-03T04:44:22.115Z,65.93
2024-02-03T04:44:43.816Z,65.57
2024-02-03T04:45:07.528Z,65.33
2024-02-03T04:45:29.283Z,65.49
2024-02-03T04:45:51.015Z,65.30
2024-02-03T04:46:12.712Z,65.47
2024-02-03T04:46:34.315Z,65.43
2024-02-03T04:46:56.947Z,65.15
2024-02-03T04:47:18.693Z,65.08
2024-02-03T04:47:40.430Z,64.96
2024-02-03T04:48:02.270Z,64.71
2024-02-03T04:48:24.043Z,64.60
2024-02-03T04:48:47.217Z,64.18
2024-02-03T04:49:09.174Z,64.09
2024-02-03T04:49:30.906Z,63.97
2024-02-03T04:49:53.027Z,63.96
2024-02-03T04:50:15.049Z,63.81
2024-02-03T04:50:37.738Z,63.59
2024-02-03T04:50:59.561Z,63.49
2024-02-03T04:51:21.175Z,62.95
2024-02-03T04:51:42.875Z,62.88
2024-02-03T04:52:05.002Z,62.76
2024-02-03T04:52:28.305Z,62.51
2024-02-03T04:52:50.945Z,62.11
2024-02-03T04:53:12.927Z,62.31
2024-02-03T04:53:34.711Z,62.90
2024-02-03T04:53:56.334Z,63.45
2024-02-03T04:54:17.994Z,63.89
2024-02-03T04:54:39.685Z,63.76
2024-02-03T04:55:02.252Z,63.58
2024-02-03T04:55:23.878Z,63.34
2024-02-03T04:55:45.497Z,63.24
2024-02-03T04:56:07.704Z,63.24
2024-02-03T04:56:29.325Z,62.97
2024-02-03T04:56:50.971Z,62.94
2024-02-03T04:57:13.559Z,62.82
2024-02-03T04:57:35.174Z,62.72
2024-02-03T04:57:56.834Z,62.64
2024-02-03T04:58:20.056Z,62.58
2024-02-03T04:58:41.682Z,62.58
2024-02-03T04:59:04.295Z,62.75
2024-02-03T04:59:25.911Z,62.97
2024-02-03T04:59:47.549Z,63.21
2024-02-03T05:00:10.334Z,62.98
2024-02-03T05:00:32.965Z,62.90
2024-02-03T05:00:54.897Z,62.55